createdAt,value
2023-02-22T00:01:19.240Z,30.85
2023-02-22T00:03:52.112Z,31.35
2023-02-22T00:06:25.222Z,29.83
2023-02-22T00:08:53.249Z,31.00
2023-02-22T00:11:20.786Z,30.90
2023-02-22T00:13:50.568Z,32.83
2023-02-22T00:16:21.667Z,31.48
2023-02-22T00:18:50.339Z,31.98
2023-02-22T00:21:18.957Z,30.92
2023-02-22T00:23:48.222Z,31.33
2023-02-22T00:26:23.457Z,30.70
2023-02-22T00:28:54.305Z,30.23
2023-02-22T00:31:22.386Z,30.90
2023-02-22T00:33:50.261Z,30.80
2023-02-22T00:36:18.426Z,29.20
2023-02-22T00:38:45.919Z,28.92
2023-02-22T00:41:13.507Z,30.42
2023-02-22T00:43:41.481Z,30.40
2023-02-22T00:46:09.133Z,28.50
2023-02-22T00:48:36.624Z,28.77
2023-02-22T00:51:04.485Z,28.92
2023-02-22T00:53:32.021Z,28.70
2023-02-22T00:55:59.577Z,27.98
2023-02-22T00:58:28.821Z,26.63
2023-02-22T01:00:58.460Z,28.45
2023-02-22T01:03:26.020Z,27.98
2023-02-22T01:05:53.813Z,29.42
2023-02-22T01:08:21.389Z,29.42
2023-02-22T01:10:49.539Z,29.73
2023-02-22T01:13:19.171Z,28.98
2023-02-22T01:15:47.049Z,28.98
2023-02-22T01:18:17.397Z,30.63
2023-02-22T01:20:48.071Z,28.55
2023-02-22T01:23:17.358Z,30.85
2023-02-22T01:25:45.217Z,29.60
2023-02-22T01:28:15.291Z,32.80
2023-02-22T01:30:42.871Z,31.73
2023-02-22T01:33:12.798Z,29.83
2023-02-22T01:35:42.501Z,31.80
2023-02-22T01:38:10.733Z,31.75
2023-02-22T01:40:43.689Z,30.30
2023-02-22T01:43:32.650Z,30.52
2023-02-22T01:46:26.068Z,29.73
2023-02-22T01:49:00.143Z,30.10
2023-02-22T01:51:37.796Z,31.15
2023-02-22T01:54:13.831Z,32.30
2023-02-22T01:57:02.247Z,32.22
2023-02-22T01:59:36.526Z,32.90
2023-02-22T02:02:06.707Z,30.40
2023-02-22T02:04:36.397Z,33.47
2023-02-22T02:07:08.842Z,34.22
2023-02-22T02:09:54.390Z,33.58
2023-02-22T02:12:24.090Z,33.05
2023-02-22T02:14:52.535Z,33.95
2023-02-22T02:17:23.680Z,32.50
2023-02-22T02:20:02.145Z,34.22
2023-02-22T02:23:08.477Z,32.72
2023-02-22T02:25:58.002Z,33.30
2023-02-22T02:29:24.797Z,34.28
2023-02-22T02:32:31.929Z,36.95
2023-02-22T02:35:45.397Z,35.08
2023-02-22T02:38:17.412Z,34.83
2023-02-22T02:41:29.870Z,34.90
2023-02-22T02:44:00.137Z,37.17
2023-02-22T02:46:52.690Z,37.47
2023-02-22T02:49:34.494Z,35.83
2023-02-22T02:52:04.846Z,36.80
2023-02-22T02:54:34.272Z,34.72
2023-02-22T02:57:03.354Z,36.35
2023-02-22T02:59:34.727Z,34.80
2023-02-22T03:02:49.282Z,36.88
2023-02-22T03:06:12.846Z,37.28
2023-02-22T03:09:04.986Z,36.17
2023-02-22T03:12:02.225Z,36.55
2023-02-22T03:14:46.985Z,38.05
2023-02-22T03:17:36.792Z,37.00
2023-02-22T03:20:13.623Z,38.15
2023-02-22T03:22:55.616Z,39.67
2023-02-22T03:25:41.582Z,37.58
2023-02-22T03:28:15.593Z,42.10
2023-02-22T03:31:22.822Z,43.42
2023-02-22T03:34:16.938Z,43.00
2023-02-22T03:36:59.721Z,40.95
2023-02-22T03:39:31.324Z,40.88
2023-02-22T03:42:17.179Z,43.33
2023-02-22T03:44:49.898Z,44.35
2023-02-22T03:47:29.810Z,41.78
2023-02-22T03:50:09.533Z,44.55
2023-02-22T03:52:38.223Z,42.55
2023-02-22T03:55:13.590Z,44.05
2023-02-22T03:57:49.790Z,43.90
2023-02-22T04:00:28.125Z,46.72
2023-02-22T04:02:56.455Z,42.78
2023-02-22T04:05:25.082Z,45.00
2023-02-22T04:07:55.056Z,46.35
2023-02-22T04:10:24.327Z,41.05
2023-02-22T04:12:52.264Z,43.75
2023-02-22T04:15:23.769Z,43.33
2023-02-22T04:17:55.644Z,40.50
2023-02-22T04:20:25.625Z,42.60
2023-02-22T04:22:59.434Z,42.63
2023-02-22T04:25:28.003Z,47.95
2023-02-22T04:27:57.820Z,43.33
2023-02-22T04:30:37.671Z,42.30
2023-02-22T04:33:08.800Z,42.08
2023-02-22T04:35:37.805Z,47.65
2023-02-22T04:38:09.251Z,43.75
2023-02-22T04:40:40.100Z,39.70
2023-02-22T04:43:08.693Z,41.72
2023-02-22T04:45:36.396Z,37.17
2023-02-22T04:48:05.912Z,36.45
2023-02-22T04:50:34.712Z,36.13
2023-02-22T04:53:04.091Z,36.95
2023-02-22T04:55:31.649Z,41.95
2023-02-22T04:57:59.683Z,39.22
2023-02-22T05:00:27.420Z,38.65
2023-02-22T05:03:00.128Z,40.15
2023-02-22T05:05:28.103Z,40.78
2023-02-22T05:07:55.828Z,41.88
2023-02-22T05:10:24.798Z,40.20
2023-02-22T05:12:52.448Z,44.15
2023-02-22T05:15:22.104Z,40.83
2023-02-22T05:17:50.065Z,41.97
2023-02-22T05:20:28.722Z,41.00
2023-02-22T05:22:57.669Z,41.45
2023-02-22T05:25:26.448Z,37.78
2023-02-22T05:27:57.422Z,40.15
2023-02-22T05:30:30.807Z,45.70
2023-02-22T05:32:59.452Z,42.13
2023-02-22T05:35:29.101Z,42.00
2023-02-22T05:37:57.517Z,43.83
2023-02-22T05:40:27.121Z,36.83
2023-02-22T05:42:56.865Z,38.22
2023-02-22T05:45:27.448Z,40.60
2023-02-22T05:47:56.056Z,39.15
2023-02-22T05:50:24.754Z,40.13
2023-02-22T05:52:54.090Z,40.50
2023-02-22T05:55:24.325Z,36.35
2023-02-22T05:57:53.075Z,38.25
2023-02-22T06:00:30.625Z,36.45
2023-02-22T06:03:02.196Z,40.70
2023-02-22T06:05:31.104Z,39.20
2023-02-22T06:07:59.824Z,39.83
2023-02-22T06:10:28.243Z,39.10
2023-02-22T06:12:57.479Z,34.85
2023-02-22T06:15:27.726Z,34.83
2023-02-22T06:17:57.861Z,34.53
2023-02-22T06:20:29.932Z,34.90
2023-02-22T06:22:59.215Z,34.45
2023-02-22T06:25:31.399Z,37.83
2023-02-22T06:28:00.928Z,34.88
2023-02-22T06:30:29.839Z,37.53
2023-02-22T06:32:57.747Z,35.42
2023-02-22T06:35:25.428Z,35.92
2023-02-22T06:37:53.091Z,34.03
2023-02-22T06:40:21.051Z,35.72
2023-02-22T06:42:49.597Z,35.35
2023-02-22T06:45:18.366Z,35.78
2023-02-22T06:47:47.785Z,37.45
2023-02-22T06:50:35.850Z,34.20
2023-02-22T06:53:04.672Z,35.13
2023-02-22T06:55:35.149Z,34.47
2023-02-22T06:58:04.960Z,34.95
2023-02-22T07:00:33.609Z,34.72
2023-02-22T07:03:04.318Z,36.65
2023-02-22T07:05:31.858Z,37.70
2023-02-22T07:08:08.156Z,37.58
2023-02-22T07:10:38.344Z,37.33
2023-02-22T07:13:08.649Z,41.67
2023-02-22T07:15:36.547Z,41.47
2023-02-22T07:18:04.697Z,35.80
2023-02-22T07:20:33.201Z,33.38
2023-02-22T07:23:02.023Z,36.00
2023-02-22T07:25:29.465Z,37.15
2023-02-22T07:27:57.688Z,35.55
2023-02-22T07:30:34.531Z,36.53
2023-02-22T07:33:07.402Z,37.47
2023-02-22T07:35:48.385Z,39.13
2023-02-22T07:38:19.058Z,33.10
2023-02-22T07:40:47.601Z,32.93
2023-02-22T07:43:24.618Z,34.28
2023-02-22T07:45:59.006Z,33.15
2023-02-22T07:48:29.978Z,32.72
2023-02-22T07:50:58.873Z,34.58
2023-02-22T07:53:30.876Z,31.35
2023-02-22T07:56:01.436Z,31.55
2023-02-22T07:58:31.561Z,34.60
2023-02-22T08:01:02.154Z,33.92
2023-02-22T08:03:36.426Z,33.53
2023-02-22T08:06:08.120Z,32.83
2023-02-22T08:08:37.064Z,34.88
2023-02-22T08:11:05.701Z,33.88
2023-02-22T08:13:33.507Z,31.50
2023-02-22T08:16:01.054Z,32.30
2023-02-22T08:18:28.584Z,34.75
2023-02-22T08:20:57.552Z,32.92
2023-02-22T08:23:27.058Z,33.35
2023-02-22T08:25:55.780Z,30.55
2023-02-22T08:28:25.027Z,34.28
2023-02-22T08:30:55.894Z,32.58
2023-02-22T08:33:24.764Z,32.87
2023-02-22T08:35:52.575Z,30.08
2023-02-22T08:38:28.395Z,30.67
2023-02-22T08:40:56.729Z,31.27
2023-02-22T08:43:24.479Z,30.98
2023-02-22T08:45:53.315Z,30.95
2023-02-22T08:48:21.684Z,35.22
2023-02-22T08:50:49.929Z,33.40
2023-02-22T08:53:18.050Z,32.80
2023-02-22T08:55:45.848Z,33.72
2023-02-22T08:58:14.021Z,32.97
2023-02-22T09:00:44.642Z,32.65
2023-02-22T09:03:15.046Z,33.85
2023-02-22T09:05:44.502Z,32.33
2023-02-22T09:08:12.608Z,32.13
2023-02-22T09:10:40.765Z,34.25
2023-02-22T09:13:08.748Z,32.67
2023-02-22T09:15:36.409Z,32.00
2023-02-22T09:18:08.538Z,34.67
2023-02-22T09:20:36.756Z,34.65
2023-02-22T09:23:06.782Z,34.55
2023-02-22T09:25:34.333Z,33.40
2023-02-22T09:28:02.770Z,32.63
2023-02-22T09:30:36.688Z,33.92
2023-02-22T09:33:14.483Z,34.05
2023-02-22T09:35:47.792Z,30.83
2023-02-22T09:38:26.141Z,31.50
2023-02-22T09:41:34.580Z,30.30
2023-02-22T09:44:16.141Z,30.92
2023-02-22T09:46:45.922Z,30.13
2023-02-22T09:50:15.913Z,28.17
2023-02-22T09:53:05.730Z,28.75
2023-02-22T09:55:48.039Z,28.50
2023-02-22T09:58:33.484Z,27.48
2023-02-22T10:01:28.119Z,28.58
2023-02-22T10:04:24.763Z,30.08
2023-02-22T10:07:39.035Z,29.00
2023-02-22T10:10:07.640Z,28.25
2023-02-22T10:12:56.454Z,27.98
2023-02-22T10:15:55.176Z,27.00
2023-02-22T10:19:11.324Z,28.52
2023-02-22T10:21:42.583Z,29.00
2023-02-22T10:24:23.652Z,28.02
2023-02-22T10:26:54.232Z,28.08
2023-02-22T10:29:54.799Z,27.63
2023-02-22T10:32:36.413Z,28.60
2023-02-22T10:35:18.312Z,26.25
2023-02-22T10:40:23.831Z,25.35
2023-02-22T10:42:51.426Z,26.05
2023-02-22T10:45:32.714Z,24.55
2023-02-22T10:48:09.577Z,23.42
2023-02-22T10:50:42.300Z,23.15
2023-02-22T10:53:12.518Z,23.27
2023-02-22T10:56:15.400Z,24.27
2023-02-22T10:58:52.437Z,23.42
2023-02-22T11:01:38.290Z,22.98
2023-02-22T11:04:24.280Z,24.15
2023-02-22T11:07:01.583Z,22.67
2023-02-22T11:09:29.187Z,22.73
2023-02-22T11:12:21.217Z,22.48
2023-02-22T11:17:28.383Z,22.08
2023-02-22T11:19:57.256Z,21.45
2023-02-22T11:22:41.103Z,20.90
2023-02-22T11:25:18.656Z,19.70
2023-02-22T11:27:47.102Z,20.67
2023-02-22T11:30:32.492Z,18.88
2023-02-22T11:33:24.636Z,18.50
2023-02-22T11:35:57.297Z,18.55
2023-02-22T11:38:33.964Z,17.90
2023-02-22T11:41:08.252Z,14.50
2023-02-22T11:43:38.232Z,15.15
2023-02-22T11:46:17.123Z,13.32
2023-02-22T11:49:04.692Z,15.10
2023-02-22T11:51:49.395Z,14.55
2023-02-22T11:54:57.350Z,13.73
2023-02-22T11:57:41.175Z,15.27
2023-02-22T12:00:36.733Z,14.77
2023-02-22T12:03:37.771Z,14.35
2023-02-22T12:06:33.179Z,14.48
2023-02-22T12:09:19.179Z,14.52
2023-02-22T12:12:07.184Z,15.20
2023-02-22T12:14:48.824Z,16.55
2023-02-22T12:20:24.765Z,14.75
2023-02-22T12:23:40.694Z,15.52
2023-02-22T12:26:20.114Z,15.38
2023-02-22T12:29:06.337Z,15.57
2023-02-22T12:31:45.851Z,16.42
2023-02-22T12:34:20.217Z,15.32
2023-02-22T12:36:55.180Z,16.23
2023-02-22T12:39:56.754Z,16.55
2023-02-22T12:42:47.247Z,14.70
2023-02-22T12:45:28.316Z,14.95
2023-02-22T12:48:17.339Z,15.57
2023-02-22T12:50:48.953Z,14.70
2023-02-22T12:53:30.820Z,14.35
2023-02-22T12:56:23.899Z,15.40
2023-02-22T12:59:31.580Z,16.17
2023-02-22T13:02:26.680Z,15.38
2023-02-22T13:04:55.089Z,14.75
2023-02-22T13:07:49.971Z,15.55
2023-02-22T13:10:39.472Z,15.43
2023-02-22T13:13:53.676Z,16.48
2023-02-22T13:17:09.229Z,16.35
2023-02-22T13:20:08.728Z,16.17
2023-02-22T13:22:47.839Z,17.13
2023-02-22T13:25:45.698Z,16.35
2023-02-22T13:28:13.247Z,16.33
2023-02-22T13:31:03.583Z,17.20
2023-02-22T13:34:30.087Z,16.60
2023-02-22T13:37:30.509Z,17.25
2023-02-22T13:40:30.698Z,18.30
2023-02-22T13:43:43.421Z,17.13
2023-02-22T13:46:25.854Z,17.27
2023-02-22T13:49:26.410Z,17.02
2023-02-22T13:52:09.503Z,17.00
2023-02-22T13:54:54.646Z,17.85
2023-02-22T13:57:28.377Z,18.55
2023-02-22T14:00:15.041Z,17.13
2023-02-22T14:03:13.429Z,16.83
2023-02-22T14:05:47.018Z,17.08
2023-02-22T14:08:17.120Z,18.08
2023-02-22T14:11:06.728Z,17.38
2023-02-22T14:14:17.177Z,17.88
2023-02-22T14:16:53.468Z,18.30
2023-02-22T14:19:25.211Z,17.70
2023-02-22T14:24:44.670Z,15.93
2023-02-22T14:27:17.600Z,16.20
2023-02-22T14:29:56.420Z,16.75
2023-02-22T14:32:33.509Z,16.45
2023-02-22T14:35:25.597Z,16.65
2023-02-22T14:37:59.631Z,17.15
2023-02-22T14:40:33.190Z,16.70
2023-02-22T14:43:14.925Z,17.10
2023-02-22T14:48:45.423Z,16.90
2023-02-22T14:51:26.833Z,18.67
2023-02-22T14:54:18.701Z,19.10
2023-02-22T14:57:00.569Z,17.30
2023-02-22T14:59:32.260Z,17.27
2023-02-22T15:02:15.024Z,18.48
2023-02-22T15:04:54.893Z,18.20
2023-02-22T15:07:27.441Z,18.80
2023-02-22T15:10:44.557Z,18.52
2023-02-22T15:13:31.465Z,18.52
2023-02-22T15:16:03.484Z,17.98
2023-02-22T15:18:43.184Z,18.08
2023-02-22T15:21:16.370Z,18.08
2023-02-22T15:23:53.574Z,18.27
2023-02-22T15:26:42.482Z,19.25
2023-02-22T15:29:38.232Z,19.73
2023-02-22T15:32:29.834Z,19.85
2023-02-22T15:35:27.814Z,18.95
2023-02-22T15:38:07.123Z,20.90
2023-02-22T15:40:36.242Z,23.70
2023-02-22T15:43:10.608Z,21.85
2023-02-22T15:45:43.062Z,21.50
2023-02-22T15:50:39.830Z,21.05
2023-02-22T15:53:28.755Z,20.42
2023-02-22T15:56:01.040Z,20.67
2023-02-22T15:58:30.100Z,20.20
2023-02-22T16:01:07.935Z,22.15
2023-02-22T16:03:44.925Z,20.95
2023-02-22T16:06:40.278Z,21.20
2023-02-22T16:09:15.702Z,21.02
2023-02-22T16:11:46.311Z,21.13
2023-02-22T16:14:43.138Z,20.85
2023-02-22T16:17:37.741Z,20.88
2023-02-22T16:20:11.436Z,22.58
2023-02-22T16:22:41.417Z,22.75
2023-02-22T16:25:18.223Z,22.02
2023-02-22T16:27:57.492Z,22.27
2023-02-22T16:30:34.506Z,22.52
2023-02-22T16:33:13.753Z,23.00
2023-02-22T16:35:51.720Z,22.75
2023-02-22T16:38:21.141Z,22.45
2023-02-22T16:40:55.473Z,23.05
2023-02-22T16:43:29.491Z,22.33
2023-02-22T16:45:57.690Z,22.90
2023-02-22T16:48:30.235Z,23.25
2023-02-22T16:51:06.879Z,23.02
2023-02-22T16:53:34.887Z,22.88
2023-02-22T16:56:08.376Z,23.65
2023-02-22T16:58:40.188Z,23.00
2023-02-22T17:01:08.578Z,23.20
2023-02-22T17:03:36.314Z,22.88
2023-02-22T17:06:04.093Z,24.48
2023-02-22T17:08:32.446Z,23.38
2023-02-22T17:11:00.754Z,22.38
2023-02-22T17:13:29.432Z,24.20
2023-02-22T17:15:58.301Z,23.60
2023-02-22T17:18:28.789Z,23.48
2023-02-22T17:20:56.684Z,24.10
2023-02-22T17:23:24.539Z,24.20
2023-02-22T17:25:56.596Z,23.88
2023-02-22T17:28:25.531Z,24.55
2023-02-22T17:31:00.645Z,24.40
2023-02-22T17:33:33.405Z,24.02
2023-02-22T17:36:03.996Z,24.95
2023-02-22T17:38:32.321Z,25.10
2023-02-22T17:41:01.433Z,24.83
2023-02-22T17:43:29.238Z,25.73
2023-02-22T17:45:57.572Z,25.30
2023-02-22T17:48:26.011Z,25.15
2023-02-22T17:50:53.985Z,25.55
2023-02-22T17:53:24.698Z,25.80
2023-02-22T17:55:53.078Z,27.13
2023-02-22T17:58:22.764Z,26.73
2023-02-22T18:00:51.196Z,27.70
2023-02-22T18:03:25.705Z,27.38
2023-02-22T18:05:57.855Z,25.65
2023-02-22T18:10:59.008Z,26.88
2023-02-22T18:13:27.758Z,25.90
2023-02-22T18:16:05.251Z,26.88
2023-02-22T18:18:32.967Z,27.00
2023-02-22T18:21:00.648Z,26.23
2023-02-22T18:23:31.257Z,27.27
2023-02-22T18:26:11.076Z,26.58
2023-02-22T18:28:39.612Z,26.67
2023-02-22T18:31:17.026Z,27.65
2023-02-22T18:33:48.500Z,27.73
2023-02-22T18:36:22.796Z,26.20
2023-02-22T18:38:53.655Z,25.02
2023-02-22T18:41:25.473Z,26.80
2023-02-22T18:43:55.554Z,26.67
2023-02-22T18:46:24.905Z,26.85
2023-02-22T18:48:55.658Z,28.00
2023-02-22T18:51:24.548Z,26.77
2023-02-22T18:53:59.983Z,27.55
2023-02-22T18:56:30.259Z,26.88
2023-02-22T18:59:01.250Z,30.27
2023-02-22T19:01:31.862Z,31.20
2023-02-22T19:04:00.453Z,31.30
2023-02-22T19:06:28.287Z,32.33
2023-02-22T19:08:56.001Z,36.63
2023-02-22T19:11:25.474Z,37.53
2023-02-22T19:13:57.596Z,39.78
2023-02-22T19:16:27.480Z,39.50
2023-02-22T19:18:57.622Z,42.85
2023-02-22T19:21:28.952Z,44.92
2023-02-22T19:24:01.785Z,44.97
2023-02-22T19:26:29.712Z,47.22
2023-02-22T19:29:01.114Z,46.53
2023-02-22T19:31:33.729Z,47.50
2023-02-22T19:34:05.946Z,50.47
2023-02-22T19:36:34.192Z,49.53
2023-02-22T19:39:02.078Z,50.53
2023-02-22T19:41:31.110Z,49.63
2023-02-22T19:43:59.640Z,49.03
2023-02-22T19:46:27.220Z,51.83
2023-02-22T19:48:59.563Z,50.90
2023-02-22T19:51:31.818Z,51.13
2023-02-22T19:54:03.779Z,54.03
2023-02-22T19:56:34.983Z,54.05
2023-02-22T19:59:13.452Z,54.85
2023-02-22T20:01:44.805Z,57.85
2023-02-22T20:04:21.473Z,58.92
2023-02-22T20:06:56.517Z,61.47
2023-02-22T20:09:36.370Z,61.45
2023-02-22T20:12:05.634Z,60.70
2023-02-22T20:14:34.233Z,66.13
2023-02-22T20:17:02.382Z,67.63
2023-02-22T20:19:29.965Z,66.25
2023-02-22T20:21:57.583Z,68.55
2023-02-22T20:24:25.388Z,69.80
2023-02-22T20:26:55.845Z,67.47
2023-02-22T20:29:29.650Z,66.60
2023-02-22T20:32:00.612Z,63.65
2023-02-22T20:34:33.363Z,64.83
2023-02-22T20:37:02.214Z,64.25
2023-02-22T20:39:29.721Z,62.28
2023-02-22T20:42:00.398Z,61.15
2023-02-22T20:44:28.012Z,62.70
2023-02-22T20:46:55.804Z,60.88
2023-02-22T20:49:23.326Z,59.38
2023-02-22T20:51:50.816Z,60.65
2023-02-22T20:54:18.710Z,59.80
2023-02-22T20:56:47.586Z,61.10
2023-02-22T20:59:18.719Z,58.72
2023-02-22T21:01:49.344Z,58.92
2023-02-22T21:04:17.704Z,61.38
2023-02-22T21:06:46.973Z,55.72
2023-02-22T21:09:19.308Z,57.30
2023-02-22T21:11:47.553Z,59.08
2023-02-22T21:14:20.417Z,56.95
2023-02-22T21:16:50.444Z,53.30
2023-02-22T21:19:26.034Z,55.65
2023-02-22T21:21:59.767Z,54.00
2023-02-22T21:24:29.086Z,56.25
2023-02-22T21:26:58.964Z,54.33
2023-02-22T21:29:29.074Z,55.67
2023-02-22T21:31:56.893Z,53.33
2023-02-22T21:34:25.794Z,55.90
2023-02-22T21:36:53.662Z,53.58
2023-02-22T21:39:22.548Z,54.65
2023-02-22T21:41:52.056Z,54.88
2023-02-22T21:44:20.499Z,55.08
2023-02-22T21:46:50.734Z,53.42
2023-02-22T21:49:23.121Z,53.47
2023-02-22T21:51:52.479Z,53.22
2023-02-22T21:54:23.608Z,54.65
2023-02-22T21:56:51.484Z,53.63
2023-02-22T21:59:23.397Z,55.58
2023-02-22T22:01:58.148Z,55.03
2023-02-22T22:04:29.311Z,53.72
2023-02-22T22:06:59.618Z,55.08
2023-02-22T22:09:32.591Z,53.33
2023-02-22T22:12:05.305Z,54.45
2023-02-22T22:14:35.504Z,52.15
2023-02-22T22:17:07.018Z,53.33
2023-02-22T22:22:07.903Z,49.88
2023-02-22T22:24:35.745Z,52.85
2023-02-22T22:27:07.602Z,51.88
2023-02-22T22:29:35.392Z,54.03
2023-02-22T22:32:03.457Z,51.80
2023-02-22T22:34:31.105Z,51.55
2023-02-22T22:36:58.783Z,51.92
2023-02-22T22:39:27.010Z,52.25
2023-02-22T22:41:55.304Z,51.50
2023-02-22T22:44:23.110Z,52.67
2023-02-22T22:46:53.575Z,52.72
2023-02-22T22:49:23.653Z,53.47
2023-02-22T22:51:51.310Z,52.45
2023-02-22T22:54:18.874Z,52.45
2023-02-22T22:56:46.483Z,50.75
2023-02-22T22:59:14.044Z,52.35
2023-02-22T23:01:44.733Z,51.00
2023-02-22T23:04:18.926Z,53.63
2023-02-22T23:06:52.349Z,51.92
2023-02-22T23:09:25.204Z,50.90
2023-02-22T23:12:08.417Z,54.60
2023-02-22T23:14:39.972Z,51.63
2023-02-22T23:17:14.226Z,51.08
2023-02-22T23:19:44.879Z,49.80
2023-02-22T23:22:14.148Z,50.40
2023-02-22T23:24:44.437Z,53.10
2023-02-22T23:27:12.323Z,51.35
2023-02-22T23:29:42.277Z,51.63
2023-02-22T23:32:10.210Z,50.72
2023-02-22T23:34:41.123Z,51.05
2023-02-22T23:37:10.730Z,52.58
2023-02-22T23:39:38.725Z,50.80
2023-02-22T23:42:08.909Z,51.50
2023-02-22T23:44:36.792Z,50.20
2023-02-22T23:47:04.650Z,51.83
2023-02-22T23:49:35.988Z,51.95
2023-02-22T23:52:09.418Z,52.08
2023-02-22T23:54:40.342Z,50.63
2023-02-22T23:57:08.830Z,51.05
2023-02-22T23:59:40.356Z,50.38
